sensor_id;sensor_type;location;lat;lon;timestamp;pressure;altitude;pressure_sealevel;temperature;humidity
75604;BME280;64187;51.010;13.792;2023-04-06T00:01:23;100751.78;;;2.74;67.80
75604;BME280;64187;51.010;13.792;2023-04-06T00:06:22;100759.06;;;2.80;66.81
75604;BME280;64187;51.010;13.792;2023-04-06T00:11:21;100761.47;;;2.90;66.44
75604;BME280;64187;51.010;13.792;2023-04-06T00:16:20;100762.47;;;2.51;67.61
75604;BME280;64187;51.010;13.792;2023-04-06T00:21:22;100762.63;;;2.72;66.73
75604;BME280;64187;51.010;13.792;2023-04-06T00:26:21;100752.09;;;2.94;65.88
75604;BME280;64187;51.010;13.792;2023-04-06T00:31:46;100753.75;;;2.95;65.28
75604;BME280;64187;51.010;13.792;2023-04-06T00:36:46;100760.16;;;2.86;65.80
75604;BME280;64187;51.010;13.792;2023-04-06T00:41:52;100758.34;;;2.63;66.86
75604;BME280;64187;51.010;13.792;2023-04-06T00:46:51;100753.44;;;2.90;66.41
75604;BME280;64187;51.010;13.792;2023-04-06T00:51:50;100750.41;;;2.93;65.75
75604;BME280;64187;51.010;13.792;2023-04-06T00:56:49;100753.38;;;2.98;65.84
75604;BME280;64187;51.010;13.792;2023-04-06T01:01:49;100756.09;;;2.75;66.27
75604;BME280;64187;51.010;13.792;2023-04-06T01:07:10;100752.31;;;2.69;66.45
75604;BME280;64187;51.010;13.792;2023-04-06T01:12:17;100755.03;;;2.38;67.44
75604;BME280;64187;51.010;13.792;2023-04-06T01:17:16;100749.13;;;2.89;66.13
75604;BME280;64187;51.010;13.792;2023-04-06T01:22:16;100754.50;;;2.43;68.21
75604;BME280;64187;51.010;13.792;2023-04-06T01:27:23;100747.78;;;2.70;67.31
75604;BME280;64187;51.010;13.792;2023-04-06T01:32:51;100746.53;;;2.57;68.07
75604;BME280;64187;51.010;13.792;2023-04-06T01:38:03;100748.34;;;2.42;68.49
75604;BME280;64187;51.010;13.792;2023-04-06T01:43:06;100745.47;;;2.67;67.53
75604;BME280;64187;51.010;13.792;2023-04-06T01:48:14;100750.44;;;2.01;70.00
75604;BME280;64187;51.010;13.792;2023-04-06T01:53:14;100744.88;;;2.10;69.62
75604;BME280;64187;51.010;13.792;2023-04-06T01:58:16;100739.53;;;2.10;69.77
75604;BME280;64187;51.010;13.792;2023-04-06T02:03:15;100741.56;;;1.77;70.51
75604;BME280;64187;51.010;13.792;2023-04-06T02:08:19;100743.69;;;2.13;69.55
75604;BME280;64187;51.010;13.792;2023-04-06T02:13:18;100746.91;;;1.77;70.60
75604;BME280;64187;51.010;13.792;2023-04-06T02:18:21;100739.00;;;1.92;69.71
75604;BME280;64187;51.010;13.792;2023-04-06T02:23:21;100734.84;;;1.50;71.71
75604;BME280;64187;51.010;13.792;2023-04-06T02:28:19;100730.66;;;1.56;71.28
75604;BME280;64187;51.010;13.792;2023-04-06T02:33:18;100727.47;;;1.60;71.18
75604;BME280;64187;51.010;13.792;2023-04-06T02:38:18;100731.06;;;1.36;71.21
75604;BME280;64187;51.010;13.792;2023-04-06T02:43:19;100730.72;;;1.39;71.37
75604;BME280;64187;51.010;13.792;2023-04-06T02:48:20;100737.66;;;1.88;69.14
75604;BME280;64187;51.010;13.792;2023-04-06T02:53:20;100730.84;;;1.46;69.81
75604;BME280;64187;51.010;13.792;2023-04-06T02:58:19;100733.56;;;1.77;68.41
75604;BME280;64187;51.010;13.792;2023-04-06T03:03:23;100732.63;;;1.22;70.38
75604;BME280;64187;51.010;13.792;2023-04-06T03:08:23;100729.41;;;1.35;69.87
75604;BME280;64187;51.010;13.792;2023-04-06T03:13:22;100729.31;;;1.51;68.69
75604;BME280;64187;51.010;13.792;2023-04-06T03:18:25;100726.44;;;1.14;70.03
75604;BME280;64187;51.010;13.792;2023-04-06T03:23:26;100735.31;;;1.62;67.79
75604;BME280;64187;51.010;13.792;2023-04-06T03:28:29;100733.75;;;1.28;69.75
75604;BME280;64187;51.010;13.792;2023-04-06T03:33:31;100742.50;;;1.53;68.18
75604;BME280;64187;51.010;13.792;2023-04-06T03:38:30;100749.06;;;1.34;69.14
75604;BME280;64187;51.010;13.792;2023-04-06T03:43:29;100750.59;;;1.28;68.86
75604;BME280;64187;51.010;13.792;2023-04-06T03:48:28;100745.00;;;1.07;69.96
75604;BME280;64187;51.010;13.792;2023-04-06T03:53:32;100752.44;;;1.12;69.44
75604;BME280;64187;51.010;13.792;2023-04-06T03:58:31;100753.47;;;1.11;69.32
75604;BME280;64187;51.010;13.792;2023-04-06T04:03:30;100759.47;;;1.13;68.92
75604;BME280;64187;51.010;13.792;2023-04-06T04:08:29;100757.66;;;1.05;69.56
75604;BME280;64187;51.010;13.792;2023-04-06T04:13:28;100758.44;;;1.14;67.95
75604;BME280;64187;51.010;13.792;2023-04-06T04:18:28;100762.78;;;1.23;67.88
75604;BME280;64187;51.010;13.792;2023-04-06T04:23:27;100762.78;;;1.23;68.02
75604;BME280;64187;51.010;13.792;2023-04-06T04:28:26;100763.06;;;1.36;67.47
75604;BME280;64187;51.010;13.792;2023-04-06T04:33:27;100761.47;;;1.11;68.42
75604;BME280;64187;51.010;13.792;2023-04-06T04:38:28;100765.91;;;1.35;66.98
75604;BME280;64187;51.010;13.792;2023-04-06T04:43:28;100757.34;;;1.56;66.97
75604;BME280;64187;51.010;13.792;2023-04-06T04:48:32;100767.25;;;1.78;66.38
75604;BME280;64187;51.010;13.792;2023-04-06T04:53:34;100760.88;;;1.48;67.44
75604;BME280;64187;51.010;13.792;2023-04-06T04:58:43;100755.53;;;1.48;67.26
75604;BME280;64187;51.010;13.792;2023-04-06T05:03:43;100766.47;;;1.61;67.18
75604;BME280;64187;51.010;13.792;2023-04-06T05:08:46;100762.16;;;0.96;69.51
75604;BME280;64187;51.010;13.792;2023-04-06T05:13:45;100776.66;;;0.85;70.94
75604;BME280;64187;51.010;13.792;2023-04-06T05:18:49;100780.47;;;0.91;69.87
75604;BME280;64187;51.010;13.792;2023-04-06T05:23:49;100787.66;;;0.91;70.66
75604;BME280;64187;51.010;13.792;2023-04-06T05:28:48;100787.75;;;1.30;69.34
75604;BME280;64187;51.010;13.792;2023-04-06T05:33:49;100796.66;;;2.01;66.94
75604;BME280;64187;51.010;13.792;2023-04-06T05:38:58;100802.22;;;1.91;66.86
75604;BME280;64187;51.010;13.792;2023-04-06T05:44:12;100795.09;;;2.15;66.32
75604;BME280;64187;51.010;13.792;2023-04-06T05:49:15;100799.19;;;2.26;64.94
75604;BME280;64187;51.010;13.792;2023-04-06T05:54:14;100796.00;;;2.53;64.27
75604;BME280;64187;51.010;13.792;2023-04-06T05:59:13;100788.00;;;2.53;64.27
75604;BME280;64187;51.010;13.792;2023-04-06T06:04:15;100796.19;;;2.29;64.72
75604;BME280;64187;51.010;13.792;2023-04-06T06:09:16;100800.97;;;2.10;65.12
75604;BME280;64187;51.010;13.792;2023-04-06T06:14:24;100788.41;;;3.03;63.00
75604;BME280;64187;51.010;13.792;2023-04-06T06:19:23;100783.94;;;3.18;63.18
75604;BME280;64187;51.010;13.792;2023-04-06T06:24:26;100777.31;;;3.59;62.01
75604;BME280;64187;51.010;13.792;2023-04-06T06:29:30;100780.97;;;3.87;61.42
75604;BME280;64187;51.010;13.792;2023-04-06T06:34:31;100789.44;;;4.06;61.16
75604;BME280;64187;51.010;13.792;2023-04-06T06:39:33;100783.81;;;4.59;59.21
75604;BME280;64187;51.010;13.792;2023-04-06T06:44:32;100782.88;;;4.08;60.38
75604;BME280;64187;51.010;13.792;2023-04-06T06:49:31;100790.91;;;5.16;57.81
75604;BME280;64187;51.010;13.792;2023-04-06T06:54:30;100790.91;;;5.44;56.79
75604;BME280;64187;51.010;13.792;2023-04-06T06:59:29;100798.84;;;5.24;56.17
75604;BME280;64187;51.010;13.792;2023-04-06T07:04:28;100787.25;;;5.52;56.52
75604;BME280;64187;51.010;13.792;2023-04-06T07:09:27;100791.25;;;6.04;54.82
75604;BME280;64187;51.010;13.792;2023-04-06T07:14:26;100787.75;;;6.10;54.89
75604;BME280;64187;51.010;13.792;2023-04-06T07:19:25;100792.78;;;6.33;54.00
75604;BME280;64187;51.010;13.792;2023-04-06T07:24:24;100789.28;;;5.85;54.18
75604;BME280;64187;51.010;13.792;2023-04-06T07:29:23;100790.38;;;6.65;53.21
75604;BME280;64187;51.010;13.792;2023-04-06T07:34:23;100783.31;;;6.71;53.88
75604;BME280;64187;51.010;13.792;2023-04-06T07:39:22;100782.94;;;6.87;52.22
75604;BME280;64187;51.010;13.792;2023-04-06T07:44:21;100783.38;;;7.10;52.85
75604;BME280;64187;51.010;13.792;2023-04-06T07:49:20;100769.59;;;7.59;49.80
75604;BME280;64187;51.010;13.792;2023-04-06T07:54:20;100773.41;;;8.03;49.62
75604;BME280;64187;51.010;13.792;2023-04-06T07:59:19;100772.03;;;7.80;48.73
75604;BME280;64187;51.010;13.792;2023-04-06T08:04:18;100772.72;;;8.07;46.52
75604;BME280;64187;51.010;13.792;2023-04-06T08:09:17;100775.69;;;8.37;46.26
75604;BME280;64187;51.010;13.792;2023-04-06T08:14:16;100778.81;;;8.34;45.43
75604;BME280;64187;51.010;13.792;2023-04-06T08:19:15;100779.44;;;8.43;45.84
75604;BME280;64187;51.010;13.792;2023-04-06T08:24:17;100774.84;;;8.75;44.07
75604;BME280;64187;51.010;13.792;2023-04-06T08:29:16;100769.38;;;9.32;43.33
75604;BME280;64187;51.010;13.792;2023-04-06T08:34:15;100772.69;;;9.71;40.81
75604;BME280;64187;51.010;13.792;2023-04-06T08:39:14;100767.59;;;8.37;42.54
75604;BME280;64187;51.010;13.792;2023-04-06T08:44:13;100772.19;;;9.19;41.52
75604;BME280;64187;51.010;13.792;2023-04-06T08:49:14;100766.72;;;9.07;42.04
75604;BME280;64187;51.010;13.792;2023-04-06T08:54:14;100758.38;;;9.52;41.57
75604;BME280;64187;51.010;13.792;2023-04-06T08:59:13;100758.44;;;9.82;39.25
75604;BME280;64187;51.010;13.792;2023-04-06T09:04:12;100759.66;;;10.17;36.84
75604;BME280;64187;51.010;13.792;2023-04-06T09:09:13;100753.88;;;9.64;35.68
75604;BME280;64187;51.010;13.792;2023-04-06T09:14:12;100757.81;;;13.25;49.39
75604;BME280;64187;51.010;13.792;2023-04-06T09:19:12;100745.16;;;14.19;39.63
75604;BME280;64187;51.010;13.792;2023-04-06T09:24:11;100749.84;;;14.83;37.68
75604;BME280;64187;51.010;13.792;2023-04-06T09:29:10;100736.91;;;12.13;31.22
75604;BME280;64187;51.010;13.792;2023-04-06T09:34:20;100738.88;;;11.65;30.69
75604;BME280;64187;51.010;13.792;2023-04-06T09:39:22;100739.53;;;11.20;32.23
75604;BME280;64187;51.010;13.792;2023-04-06T09:44:24;100725.38;;;11.53;33.02
75604;BME280;64187;51.010;13.792;2023-04-06T09:49:24;100728.56;;;10.80;32.29
75604;BME280;64187;51.010;13.792;2023-04-06T09:54:28;100729.28;;;10.98;31.31
75604;BME280;64187;51.010;13.792;2023-04-06T09:59:44;100719.97;;;10.71;32.27
75604;BME280;64187;51.010;13.792;2023-04-06T10:05:12;100726.22;;;10.83;31.50
75604;BME280;64187;51.010;13.792;2023-04-06T10:10:08;100716.88;;;11.50;31.32
75604;BME280;64187;51.010;13.792;2023-04-06T10:15:08;100713.84;;;11.87;28.60
75604;BME280;64187;51.010;13.792;2023-04-06T10:20:35;100717.31;;;11.70;28.89
75604;BME280;64187;51.010;13.792;2023-04-06T10:25:36;100714.09;;;11.21;28.44
75604;BME280;64187;51.010;13.792;2023-04-06T10:30:42;100708.16;;;11.48;28.23
75604;BME280;64187;51.010;13.792;2023-04-06T10:35:42;100701.38;;;11.74;27.77
75604;BME280;64187;51.010;13.792;2023-04-06T10:40:42;100696.31;;;12.52;27.04
75604;BME280;64187;51.010;13.792;2023-04-06T10:45:56;100690.84;;;11.89;28.98
75604;BME280;64187;51.010;13.792;2023-04-06T10:50:56;100693.56;;;11.77;29.01
75604;BME280;64187;51.010;13.792;2023-04-06T10:55:56;100687.00;;;11.73;30.26
75604;BME280;64187;51.010;13.792;2023-04-06T11:00:55;100679.41;;;12.16;27.54
75604;BME280;64187;51.010;13.792;2023-04-06T11:05:54;100685.47;;;12.68;26.21
75604;BME280;64187;51.010;13.792;2023-04-06T11:16:05;100675.94;;;11.11;28.66
75604;BME280;64187;51.010;13.792;2023-04-06T11:21:04;100667.47;;;11.59;28.23
75604;BME280;64187;51.010;13.792;2023-04-06T11:26:03;100662.00;;;12.28;27.28
75604;BME280;64187;51.010;13.792;2023-04-06T11:31:02;100657.72;;;12.16;26.04
75604;BME280;64187;51.010;13.792;2023-04-06T11:36:01;100656.72;;;12.05;28.53
75604;BME280;64187;51.010;13.792;2023-04-06T11:41:01;100654.53;;;12.69;26.33
75604;BME280;64187;51.010;13.792;2023-04-06T11:46:03;100655.66;;;12.90;27.08
75604;BME280;64187;51.010;13.792;2023-04-06T11:51:03;100650.66;;;12.82;25.97
75604;BME280;64187;51.010;13.792;2023-04-06T11:56:03;100649.69;;;11.52;27.13
75604;BME280;64187;51.010;13.792;2023-04-06T12:01:03;100648.16;;;12.13;27.05
75604;BME280;64187;51.010;13.792;2023-04-06T12:06:03;100645.19;;;11.98;27.29
75604;BME280;64187;51.010;13.792;2023-04-06T12:11:01;100644.28;;;11.80;28.09
75604;BME280;64187;51.010;13.792;2023-04-06T12:16:03;100645.16;;;11.69;27.86
75604;BME280;64187;51.010;13.792;2023-04-06T12:21:02;100634.00;;;11.54;28.23
75604;BME280;64187;51.010;13.792;2023-04-06T12:26:02;100634.59;;;11.84;28.09
75604;BME280;64187;51.010;13.792;2023-04-06T12:31:01;100618.03;;;11.69;26.89
75604;BME280;64187;51.010;13.792;2023-04-06T12:36:00;100619.66;;;11.41;27.78
75604;BME280;64187;51.010;13.792;2023-04-06T12:40:59;100616.03;;;11.36;28.46
75604;BME280;64187;51.010;13.792;2023-04-06T12:46:00;100610.81;;;11.46;27.52
75604;BME280;64187;51.010;13.792;2023-04-06T12:51:01;100610.75;;;11.29;28.13
75604;BME280;64187;51.010;13.792;2023-04-06T12:56:01;100609.84;;;11.12;28.72
75604;BME280;64187;51.010;13.792;2023-04-06T13:01:00;100604.75;;;12.13;27.38
75604;BME280;64187;51.010;13.792;2023-04-06T13:06:01;100593.84;;;12.64;26.57
75604;BME280;64187;51.010;13.792;2023-04-06T13:11:00;100589.34;;;12.91;27.43
75604;BME280;64187;51.010;13.792;2023-04-06T13:16:02;100580.28;;;13.03;27.53
75604;BME280;64187;51.010;13.792;2023-04-06T13:21:02;100582.38;;;12.79;26.85
75604;BME280;64187;51.010;13.792;2023-04-06T13:26:04;100570.34;;;13.13;26.52
75604;BME280;64187;51.010;13.792;2023-04-06T13:31:03;100567.09;;;13.61;26.05
75604;BME280;64187;51.010;13.792;2023-04-06T13:36:02;100563.91;;;13.42;26.48
75604;BME280;64187;51.010;13.792;2023-04-06T13:41:01;100551.59;;;13.12;27.37
75604;BME280;64187;51.010;13.792;2023-04-06T13:46:00;100554.09;;;13.19;26.36
75604;BME280;64187;51.010;13.792;2023-04-06T13:51:08;100564.78;;;13.03;26.27
75604;BME280;64187;51.010;13.792;2023-04-06T13:56:08;100551.94;;;12.99;26.30
75604;BME280;64187;51.010;13.792;2023-04-06T14:01:07;100549.00;;;12.61;26.81
75604;BME280;64187;51.010;13.792;2023-04-06T14:06:11;100540.34;;;12.25;27.24
75604;BME280;64187;51.010;13.792;2023-04-06T14:11:24;100536.97;;;12.74;27.89
75604;BME280;64187;51.010;13.792;2023-04-06T14:16:24;100540.88;;;12.44;27.64
75604;BME280;64187;51.010;13.792;2023-04-06T14:21:23;100548.16;;;12.22;27.54
75604;BME280;64187;51.010;13.792;2023-04-06T14:26:22;100535.53;;;12.49;27.59
75604;BME280;64187;51.010;13.792;2023-04-06T14:31:21;100539.94;;;12.34;29.09
75604;BME280;64187;51.010;13.792;2023-04-06T14:36:20;100545.72;;;12.20;29.26
75604;BME280;64187;51.010;13.792;2023-04-06T14:41:23;100539.09;;;12.33;28.57
75604;BME280;64187;51.010;13.792;2023-04-06T14:46:22;100528.91;;;12.23;28.77
75604;BME280;64187;51.010;13.792;2023-04-06T14:51:20;100525.97;;;12.25;29.38
75604;BME280;64187;51.010;13.792;2023-04-06T14:56:21;100527.53;;;12.21;28.28
75604;BME280;64187;51.010;13.792;2023-04-06T15:01:20;100527.69;;;11.97;28.70
75604;BME280;64187;51.010;13.792;2023-04-06T15:06:19;100520.34;;;12.15;30.04
75604;BME280;64187;51.010;13.792;2023-04-06T15:11:19;100526.03;;;12.13;30.27
75604;BME280;64187;51.010;13.792;2023-04-06T15:16:18;100523.63;;;12.34;28.27
75604;BME280;64187;51.010;13.792;2023-04-06T15:21:17;100519.38;;;12.21;29.78
75604;BME280;64187;51.010;13.792;2023-04-06T15:26:18;100523.09;;;11.98;30.00
75604;BME280;64187;51.010;13.792;2023-04-06T15:31:19;100521.88;;;12.05;29.87
75604;BME280;64187;51.010;13.792;2023-04-06T15:36:35;100514.47;;;12.01;29.68
75604;BME280;64187;51.010;13.792;2023-04-06T15:41:34;100514.28;;;11.91;29.91
75604;BME280;64187;51.010;13.792;2023-04-06T15:46:34;100511.00;;;12.22;28.82
75604;BME280;64187;51.010;13.792;2023-04-06T15:51:32;100505.88;;;12.26;28.97
75604;BME280;64187;51.010;13.792;2023-04-06T15:56:32;100513.97;;;12.04;30.08
75604;BME280;64187;51.010;13.792;2023-04-06T16:01:31;100514.56;;;11.60;29.83
75604;BME280;64187;51.010;13.792;2023-04-06T16:06:30;100520.13;;;11.54;30.45
75604;BME280;64187;51.010;13.792;2023-04-06T16:11:30;100516.69;;;11.58;30.65
75604;BME280;64187;51.010;13.792;2023-04-06T16:16:30;100521.94;;;11.48;29.84
75604;BME280;64187;51.010;13.792;2023-04-06T16:21:29;100522.84;;;11.25;30.57
75604;BME280;64187;51.010;13.792;2023-04-06T16:26:28;100517.44;;;10.96;30.38
75604;BME280;64187;51.010;13.792;2023-04-06T16:31:27;100525.25;;;11.10;30.49
75604;BME280;64187;51.010;13.792;2023-04-06T16:36:29;100523.38;;;11.10;30.79
75604;BME280;64187;51.010;13.792;2023-04-06T16:41:30;100518.00;;;10.98;30.20
75604;BME280;64187;51.010;13.792;2023-04-06T16:46:33;100518.84;;;10.99;32.19
75604;BME280;64187;51.010;13.792;2023-04-06T16:51:33;100515.59;;;10.73;31.28
75604;BME280;64187;51.010;13.792;2023-04-06T16:56:33;100519.97;;;10.63;31.62
75604;BME280;64187;51.010;13.792;2023-04-06T17:01:32;100517.41;;;10.44;31.51
75604;BME280;64187;51.010;13.792;2023-04-06T17:06:31;100518.09;;;10.28;32.41
75604;BME280;64187;51.010;13.792;2023-04-06T17:11:30;100514.56;;;10.04;33.24
75604;BME280;64187;51.010;13.792;2023-04-06T17:16:44;100519.88;;;9.68;34.68
75604;BME280;64187;51.010;13.792;2023-04-06T17:21:43;100523.19;;;9.70;33.67
75604;BME280;64187;51.010;13.792;2023-04-06T17:26:42;100529.25;;;9.54;33.92
75604;BME280;64187;51.010;13.792;2023-04-06T17:31:43;100527.41;;;9.36;34.88
75604;BME280;64187;51.010;13.792;2023-04-06T17:36:42;100535.03;;;9.27;34.76
75604;BME280;64187;51.010;13.792;2023-04-06T17:41:41;100538.06;;;9.19;35.34
75604;BME280;64187;51.010;13.792;2023-04-06T17:46:40;100542.31;;;9.09;35.95
75604;BME280;64187;51.010;13.792;2023-04-06T17:51:39;100543.25;;;9.02;35.79
75604;BME280;64187;51.010;13.792;2023-04-06T17:56:39;100551.72;;;8.88;36.50
75604;BME280;64187;51.010;13.792;2023-04-06T18:01:38;100552.84;;;8.61;38.32
75604;BME280;64187;51.010;13.792;2023-04-06T18:06:37;100553.94;;;8.54;38.30
75604;BME280;64187;51.010;13.792;2023-04-06T18:11:36;100560.63;;;8.51;38.44
75604;BME280;64187;51.010;13.792;2023-04-06T18:16:35;100565.81;;;8.53;38.12
75604;BME280;64187;51.010;13.792;2023-04-06T18:21:34;100564.25;;;8.38;38.63
75604;BME280;64187;51.010;13.792;2023-04-06T18:26:34;100572.13;;;8.15;39.27
75604;BME280;64187;51.010;13.792;2023-04-06T18:31:33;100575.31;;;8.05;39.53
75604;BME280;64187;51.010;13.792;2023-04-06T18:36:37;100578.88;;;7.99;39.41
75604;BME280;64187;51.010;13.792;2023-04-06T18:41:35;100581.06;;;7.84;40.05
75604;BME280;64187;51.010;13.792;2023-04-06T18:46:34;100587.19;;;7.66;40.58
75604;BME280;64187;51.010;13.792;2023-04-06T18:51:33;100578.94;;;7.61;40.73
75604;BME280;64187;51.010;13.792;2023-04-06T18:56:32;100587.81;;;7.68;43.81
75604;BME280;64187;51.010;13.792;2023-04-06T19:01:31;100593.91;;;7.50;44.87
75604;BME280;64187;51.010;13.792;2023-04-06T19:06:30;100595.31;;;7.14;45.68
75604;BME280;64187;51.010;13.792;2023-04-06T19:11:30;100595.47;;;6.54;47.91
75604;BME280;64187;51.010;13.792;2023-04-06T19:16:29;100588.44;;;6.46;48.68
75604;BME280;64187;51.010;13.792;2023-04-06T19:21:29;100590.09;;;6.41;49.19
75604;BME280;64187;51.010;13.792;2023-04-06T19:26:28;100588.25;;;6.08;49.00
75604;BME280;64187;51.010;13.792;2023-04-06T19:31:29;100587.63;;;6.13;49.32
75604;BME280;64187;51.010;13.792;2023-04-06T19:36:28;100598.91;;;5.68;51.36
75604;BME280;64187;51.010;13.792;2023-04-06T19:41:29;100598.09;;;5.81;51.13
75604;BME280;64187;51.010;13.792;2023-04-06T19:46:28;100600.56;;;5.69;51.87
75604;BME280;64187;51.010;13.792;2023-04-06T19:51:32;100591.50;;;5.15;53.68
75604;BME280;64187;51.010;13.792;2023-04-06T19:56:31;100589.50;;;5.31;53.59
75604;BME280;64187;51.010;13.792;2023-04-06T20:01:30;100599.28;;;4.97;54.34
75604;BME280;64187;51.010;13.792;2023-04-06T20:06:29;100603.78;;;4.62;55.59
75604;BME280;64187;51.010;13.792;2023-04-06T20:11:28;100599.66;;;4.94;54.35
75604;BME280;64187;51.010;13.792;2023-04-06T20:16:27;100603.88;;;4.40;55.82
75604;BME280;64187;51.010;13.792;2023-04-06T20:21:26;100610.66;;;4.71;55.99
75604;BME280;64187;51.010;13.792;2023-04-06T20:26:25;100606.00;;;4.23;57.43
75604;BME280;64187;51.010;13.792;2023-04-06T20:31:26;100605.88;;;4.60;56.38
75604;BME280;64187;51.010;13.792;2023-04-06T20:36:25;100604.13;;;4.80;54.84
75604;BME280;64187;51.010;13.792;2023-04-06T20:41:25;100606.47;;;4.90;54.18
75604;BME280;64187;51.010;13.792;2023-04-06T20:46:24;100600.66;;;4.86;54.67
75604;BME280;64187;51.010;13.792;2023-04-06T20:51:23;100598.94;;;4.16;56.76
75604;BME280;64187;51.010;13.792;2023-04-06T20:56:23;100612.44;;;4.29;56.74
75604;BME280;64187;51.010;13.792;2023-04-06T21:01:24;100597.72;;;4.46;56.44
75604;BME280;64187;51.010;13.792;2023-04-06T21:06:25;100605.13;;;4.16;57.10
75604;BME280;64187;51.010;13.792;2023-04-06T21:11:25;100594.31;;;4.31;57.30
75604;BME280;64187;51.010;13.792;2023-04-06T21:16:24;100598.69;;;4.39;57.06
75604;BME280;64187;51.010;13.792;2023-04-06T21:21:23;100601.63;;;4.44;57.08
75604;BME280;64187;51.010;13.792;2023-04-06T21:26:22;100602.06;;;4.47;57.80
75604;BME280;64187;51.010;13.792;2023-04-06T21:31:21;100605.38;;;4.84;56.10
75604;BME280;64187;51.010;13.792;2023-04-06T21:36:20;100594.78;;;4.41;57.63
75604;BME280;64187;51.010;13.792;2023-04-06T21:41:19;100596.25;;;4.16;58.54
75604;BME280;64187;51.010;13.792;2023-04-06T21:46:19;100591.66;;;4.09;58.82
75604;BME280;64187;51.010;13.792;2023-04-06T21:51:19;100591.69;;;4.38;58.21
75604;BME280;64187;51.010;13.792;2023-04-06T21:56:20;100584.00;;;4.28;58.12
75604;BME280;64187;51.010;13.792;2023-04-06T22:01:22;100592.50;;;4.10;58.49
75604;BME280;64187;51.010;13.792;2023-04-06T22:06:21;100585.41;;;4.02;59.13
75604;BME280;64187;51.010;13.792;2023-04-06T22:11:23;100573.78;;;4.17;59.02
75604;BME280;64187;51.010;13.792;2023-04-06T22:16:22;100582.25;;;3.71;60.55
75604;BME280;64187;51.010;13.792;2023-04-06T22:21:21;100591.50;;;3.32;61.91
75604;BME280;64187;51.010;13.792;2023-04-06T22:26:20;100582.34;;;3.41;62.04
75604;BME280;64187;51.010;13.792;2023-04-06T22:31:19;100578.72;;;3.49;61.86
75604;BME280;64187;51.010;13.792;2023-04-06T22:36:18;100575.16;;;3.84;60.44
75604;BME280;64187;51.010;13.792;2023-04-06T22:41:17;100574.66;;;3.74;61.04
75604;BME280;64187;51.010;13.792;2023-04-06T22:46:16;100570.69;;;3.70;60.89
75604;BME280;64187;51.010;13.792;2023-04-06T22:51:15;100572.22;;;3.36;62.20
75604;BME280;64187;51.010;13.792;2023-04-06T22:56:14;100572.38;;;3.35;61.73
75604;BME280;64187;51.010;13.792;2023-04-06T23:01:13;100567.19;;;3.48;61.32
75604;BME280;64187;51.010;13.792;2023-04-06T23:06:12;100578.13;;;3.32;61.78
75604;BME280;64187;51.010;13.792;2023-04-06T23:11:11;100567.69;;;3.37;61.60
75604;BME280;64187;51.010;13.792;2023-04-06T23:16:10;100566.50;;;3.24;61.92
75604;BME280;64187;51.010;13.792;2023-04-06T23:21:09;100559.97;;;3.70;60.45
75604;BME280;64187;51.010;13.792;2023-04-06T23:26:08;100562.03;;;3.47;60.91
75604;BME280;64187;51.010;13.792;2023-04-06T23:31:07;100562.41;;;3.86;59.40
75604;BME280;64187;51.010;13.792;2023-04-06T23:36:06;100555.03;;;3.67;60.19
75604;BME280;64187;51.010;13.792;2023-04-06T23:41:05;100554.63;;;3.92;58.93
75604;BME280;64187;51.010;13.792;2023-04-06T23:46:04;100546.88;;;3.75;59.06
75604;BME280;64187;51.010;13.792;2023-04-06T23:51:03;100551.97;;;3.12;61.84
75604;BME280;64187;51.010;13.792;2023-04-06T23:56:02;100556.41;;;3.41;60.44
